Time;durP1;ratioP1;P1;durP2;ratioP2;P2;SDS_P1;SDS_P2;PMS_P1;PMS_P2;Temp;Humidity;BMP_temperature;BMP_pressure;BME280_temperature;BME280_humidity;BME280_pressure;Samples;Min_cycle;Max_cycle;Signal;HPM_P1;HPM_P2
2023/03/05 00:01:26;;;;;;;62.65;30.25;;;3.30;65.10;;;;;;5036153;28;20029;-73
2023/03/05 00:03:54;;;;;;;60.05;30.15;;;3.40;64.80;;;;;;5054023;28;20063;-73
2023/03/05 00:06:21;;;;;;;58.75;29.92;;;3.30;64.80;;;;;;5053961;28;20109;-72
2023/03/05 00:08:48;;;;;;;64.38;31.08;;;3.20;64.70;;;;;;5036040;28;20060;-72
2023/03/05 00:11:14;;;;;;;55.65;29.15;;;3.20;65.00;;;;;;5054244;28;20028;-72
2023/03/05 00:13:40;;;;;;;56.72;29.77;;;3.20;65.30;;;;;;5035961;28;20060;-72
2023/03/05 00:16:08;;;;;;;58.65;29.20;;;3.30;65.30;;;;;;5053756;28;20061;-73
2023/03/05 00:18:34;;;;;;;63.72;30.05;;;3.30;65.00;;;;;;5053577;28;20048;-71
2023/03/05 00:21:00;;;;;;;55.72;27.35;;;3.30;64.80;;;;;;5053745;28;20028;-72
2023/03/05 00:23:25;;;;;;;61.70;30.52;;;3.30;64.80;;;;;;5053653;28;20017;-71
2023/03/05 00:25:51;;;;;;;62.03;30.55;;;3.30;64.80;;;;;;5053562;28;20035;-71
2023/03/05 00:28:16;;;;;;;68.65;33.25;;;3.30;64.90;;;;;;5053546;28;20032;-71
2023/03/05 00:30:42;;;;;;;60.03;30.17;;;3.40;64.80;;;;;;5053569;28;20092;-71
2023/03/05 00:33:09;;;;;;;57.67;29.35;;;3.30;64.90;;;;;;5053539;28;20053;-72
2023/03/05 00:35:43;;;;;;;60.60;30.45;;;3.40;64.90;;;;;;5053390;28;20037;-71
2023/03/05 00:38:09;;;;;;;58.42;30.80;;;3.40;64.80;;;;;;5035483;28;20031;-70
2023/03/05 00:40:36;;;;;;;56.55;28.92;;;3.30;64.80;;;;;;5035511;28;20111;-70
2023/03/05 00:43:03;;;;;;;56.13;29.20;;;3.30;64.80;;;;;;5053053;28;20541;-73
2023/03/05 00:45:28;;;;;;;65.57;30.85;;;3.40;64.90;;;;;;5053311;28;20036;-71
2023/03/05 00:47:54;;;;;;;57.38;30.05;;;3.40;64.80;;;;;;5053268;28;20457;-72
2023/03/05 00:50:19;;;;;;;57.35;29.25;;;3.40;64.80;;;;;;5053221;28;20476;-71
2023/03/05 00:52:45;;;;;;;57.35;28.80;;;3.50;64.90;;;;;;5053161;28;20474;-71
2023/03/05 00:55:10;;;;;;;58.92;29.02;;;3.40;64.90;;;;;;5053091;28;20544;-73
2023/03/05 00:57:36;;;;;;;51.30;27.67;;;3.40;65.00;;;;;;5053141;28;20060;-72
2023/03/05 01:00:02;;;;;;;57.28;27.88;;;3.40;65.00;;;;;;5053068;28;20397;-72
2023/03/05 01:02:28;;;;;;;58.03;29.25;;;3.40;65.10;;;;;;5053020;28;20119;-71
2023/03/05 01:04:54;;;;;;;59.65;29.23;;;3.40;65.00;;;;;;5052908;28;20473;-71
2023/03/05 01:07:19;;;;;;;56.70;27.30;;;3.30;64.90;;;;;;5052916;28;20091;-71
2023/03/05 01:09:45;;;;;;;53.50;28.02;;;3.30;65.00;;;;;;5052906;28;20017;-72
2023/03/05 01:12:10;;;;;;;56.92;28.50;;;3.20;65.10;;;;;;5052894;28;20036;-71
2023/03/05 01:14:36;;;;;;;56.17;27.98;;;3.20;65.10;;;;;;5052758;28;20039;-72
2023/03/05 01:17:02;;;;;;;49.90;25.95;;;3.30;65.10;;;;;;5052833;28;20041;-73
2023/03/05 01:19:27;;;;;;;54.58;26.90;;;3.20;64.80;;;;;;5052640;28;20057;-71
2023/03/05 01:21:53;;;;;;;59.53;29.08;;;3.30;64.70;;;;;;5052808;28;20028;-72
2023/03/05 01:24:19;;;;;;;59.55;28.05;;;3.30;64.70;;;;;;5052848;28;20381;-71
2023/03/05 01:26:45;;;;;;;49.97;25.98;;;3.30;64.40;;;;;;5052742;28;20021;-71
2023/03/05 01:29:11;;;;;;;58.75;28.05;;;3.30;64.50;;;;;;5052838;28;20025;-71
2023/03/05 01:31:36;;;;;;;48.75;24.27;;;3.20;64.10;;;;;;5052754;28;20484;-71
2023/03/05 01:34:02;;;;;;;54.25;26.15;;;3.20;64.20;;;;;;5052793;28;20466;-71
2023/03/05 01:36:27;;;;;;;53.70;24.70;;;3.10;64.50;;;;;;5052655;28;20033;-71
2023/03/05 01:38:53;;;;;;;54.58;26.95;;;3.00;65.10;;;;;;5034901;28;20028;-70
2023/03/05 01:41:19;;;;;;;56.40;27.20;;;2.90;65.70;;;;;;5035016;28;20025;-72
2023/03/05 01:43:47;;;;;;;50.47;25.15;;;2.80;66.10;;;;;;5052667;28;20496;-71
2023/03/05 01:46:21;;;;;;;46.95;23.30;;;2.70;66.60;;;;;;5052624;28;20128;-71
2023/03/05 01:48:53;;;;;;;47.40;23.80;;;2.70;66.80;;;;;;5052661;28;20021;-72
2023/03/05 01:51:22;;;;;;;55.10;26.63;;;2.80;66.70;;;;;;5052788;28;20033;-72
2023/03/05 01:53:48;;;;;;;52.22;26.42;;;2.80;66.30;;;;;;5052628;28;20057;-71
2023/03/05 01:56:14;;;;;;;57.60;25.70;;;2.80;66.20;;;;;;5055983;28;20064;-71
2023/03/05 01:58:40;;;;;;;57.33;26.35;;;2.90;66.30;;;;;;5056642;28;20392;-71
2023/03/05 02:01:06;;;;;;;58.30;27.10;;;2.90;66.10;;;;;;5056391;28;20074;-71
2023/03/05 02:03:33;;;;;;;53.97;26.17;;;3.00;66.00;;;;;;5056291;28;20103;-71
2023/03/05 02:05:58;;;;;;;52.30;26.15;;;3.00;66.10;;;;;;5056445;28;20546;-71
2023/03/05 02:08:24;;;;;;;55.88;26.38;;;3.10;66.10;;;;;;5056286;28;20068;-72
2023/03/05 02:10:54;;;;;;;50.92;25.90;;;3.10;65.80;;;;;;5056336;28;20358;-71
2023/03/05 02:13:22;;;;;;;55.08;27.33;;;3.20;65.50;;;;;;5056045;28;20389;-72
2023/03/05 02:15:48;;;;;;;56.78;26.95;;;3.30;65.40;;;;;;5055838;28;20035;-71
2023/03/05 02:18:16;;;;;;;62.42;30.33;;;3.30;65.30;;;;;;5055962;28;20092;-70
2023/03/05 02:20:48;;;;;;;69.30;32.80;;;3.30;65.30;;;;;;5055950;28;20027;-71
2023/03/05 02:23:14;;;;;;;69.95;31.70;;;3.00;66.20;;;;;;5055854;28;20035;-72
2023/03/05 02:25:40;;;;;;;57.83;29.23;;;3.00;66.60;;;;;;5055935;28;20096;-71
2023/03/05 02:28:28;;;;;;;61.65;30.85;;;3.00;66.60;;;;;;5064026;28;20060;-72
2023/03/05 02:30:53;;;;;;;63.85;30.35;;;3.10;66.60;;;;;;5056236;28;20025;-71
2023/03/05 02:33:19;;;;;;;60.88;28.73;;;3.00;66.60;;;;;;5055842;28;20098;-71
2023/03/05 02:35:45;;;;;;;63.63;31.08;;;3.10;66.60;;;;;;5055769;28;20124;-71
2023/03/05 02:38:13;;;;;;;64.75;32.15;;;3.00;66.40;;;;;;5055568;28;20060;-71
2023/03/05 02:40:38;;;;;;;66.93;31.67;;;3.00;66.50;;;;;;5055638;28;20474;-71
2023/03/05 02:43:05;;;;;;;64.30;30.67;;;3.00;66.50;;;;;;5055182;28;20059;-72
2023/03/05 02:45:30;;;;;;;64.50;30.92;;;2.90;66.40;;;;;;5055506;28;20542;-71
2023/03/05 02:47:56;;;;;;;70.20;31.90;;;3.00;66.40;;;;;;5055611;28;20041;-71
2023/03/05 02:50:22;;;;;;;62.92;32.17;;;3.00;66.40;;;;;;5037637;28;20447;-71
2023/03/05 02:52:48;;;;;;;62.97;30.27;;;3.00;66.30;;;;;;5055506;28;20021;-72
2023/03/05 02:55:13;;;;;;;59.08;28.08;;;3.00;66.10;;;;;;5055319;28;20021;-70
2023/03/05 02:57:39;;;;;;;60.90;30.48;;;3.10;65.90;;;;;;5055285;28;20520;-71
2023/03/05 03:00:05;;;;;;;63.63;31.15;;;3.10;65.90;;;;;;5055401;28;20434;-71
2023/03/05 03:02:33;;;;;;;56.83;29.88;;;3.10;65.90;;;;;;5054970;28;20156;-71
2023/03/05 03:04:58;;;;;;;58.90;30.85;;;3.10;65.70;;;;;;5055184;28;20377;-71
2023/03/05 03:07:24;;;;;;;67.85;33.35;;;3.00;65.40;;;;;;5053676;28;20107;-71
2023/03/05 03:09:49;;;;;;;60.28;30.42;;;3.00;65.30;;;;;;5055162;28;20052;-71
2023/03/05 03:12:15;;;;;;;59.30;30.33;;;2.90;65.80;;;;;;5055104;28;20033;-71
2023/03/05 03:14:41;;;;;;;63.00;30.23;;;2.90;65.80;;;;;;5054879;28;20405;-71
2023/03/05 03:17:09;;;;;;;59.65;30.63;;;2.90;65.80;;;;;;5054926;28;20032;-71
2023/03/05 03:19:35;;;;;;;63.33;30.50;;;3.00;65.80;;;;;;5054875;28;20440;-71
2023/03/05 03:22:03;;;;;;;61.97;30.08;;;3.00;65.50;;;;;;5054907;28;20033;-71
2023/03/05 03:24:29;;;;;;;56.33;29.10;;;3.00;65.40;;;;;;5054974;28;20025;-71
2023/03/05 03:26:55;;;;;;;64.32;29.98;;;3.10;66.10;;;;;;5054835;28;20029;-71
2023/03/05 03:29:20;;;;;;;64.72;31.73;;;3.10;65.40;;;;;;5054595;28;20021;-71
2023/03/05 03:31:46;;;;;;;58.88;30.00;;;3.10;65.30;;;;;;5054845;28;20224;-71
2023/03/05 03:34:14;;;;;;;63.45;31.88;;;3.10;65.20;;;;;;5054669;28;20025;-72
2023/03/05 03:36:40;;;;;;;57.80;28.58;;;3.20;65.40;;;;;;5054437;28;20089;-71
2023/03/05 03:39:08;;;;;;;60.20;28.70;;;3.20;66.10;;;;;;5054559;28;20051;-72
2023/03/05 03:41:35;;;;;;;63.45;31.10;;;3.20;65.30;;;;;;5054529;28;20028;-72
2023/03/05 03:44:02;;;;;;;61.13;31.88;;;3.20;65.30;;;;;;5054495;28;20025;-71
2023/03/05 03:46:28;;;;;;;59.40;30.80;;;3.20;65.30;;;;;;5054655;28;20025;-72
2023/03/05 03:48:53;;;;;;;63.22;29.63;;;3.20;65.30;;;;;;5054510;28;20385;-71
2023/03/05 03:51:19;;;;;;;59.50;29.63;;;3.20;65.30;;;;;;5054644;28;20070;-71
2023/03/05 03:53:45;;;;;;;59.28;31.27;;;3.20;65.50;;;;;;5054343;28;20079;-71
2023/03/05 03:56:10;;;;;;;59.42;30.25;;;3.20;65.40;;;;;;5054127;28;20033;-72
2023/03/05 03:58:36;;;;;;;65.47;33.15;;;3.10;65.50;;;;;;5036444;28;20671;-71
2023/03/05 04:01:01;;;;;;;66.88;31.50;;;3.10;65.60;;;;;;5054185;28;20546;-71
2023/03/05 04:03:27;;;;;;;57.95;30.02;;;3.10;65.70;;;;;;5054109;28;20032;-72
2023/03/05 04:05:52;;;;;;;65.53;32.72;;;3.10;65.80;;;;;;5054056;28;20033;-71
2023/03/05 04:08:18;;;;;;;62.50;32.63;;;3.10;65.80;;;;;;5036288;28;20025;-72
2023/03/05 04:10:43;;;;;;;63.90;30.33;;;3.10;65.90;;;;;;5054076;28;20025;-71
2023/03/05 04:13:09;;;;;;;58.55;28.75;;;3.00;66.10;;;;;;5053885;28;20025;-71
2023/03/05 04:15:34;;;;;;;65.03;31.52;;;3.10;66.20;;;;;;5053956;28;20041;-71
2023/03/05 04:18:00;;;;;;;62.58;31.52;;;3.10;66.20;;;;;;5053256;28;20124;-71
2023/03/05 04:20:26;;;;;;;62.67;30.95;;;3.10;66.10;;;;;;5053751;28;20032;-71
2023/03/05 04:22:51;;;;;;;61.10;29.42;;;3.10;66.00;;;;;;5053740;28;20025;-71
2023/03/05 04:25:17;;;;;;;61.20;31.08;;;3.10;66.00;;;;;;5053704;28;20098;-72
2023/03/05 04:27:42;;;;;;;57.45;29.50;;;3.10;66.20;;;;;;5053599;28;20059;-71
2023/03/05 04:30:11;;;;;;;64.80;29.85;;;3.10;66.40;;;;;;5053630;28;20024;-71
2023/03/05 04:32:36;;;;;;;56.85;28.90;;;3.20;66.50;;;;;;5053390;28;20119;-71
2023/03/05 04:35:02;;;;;;;62.05;30.83;;;3.20;66.60;;;;;;5053352;28;20104;-71
2023/03/05 04:37:27;;;;;;;57.45;28.90;;;3.20;66.70;;;;;;5035629;28;20033;-72
2023/03/05 04:39:53;;;;;;;57.85;28.20;;;3.10;66.80;;;;;;5053381;28;20021;-71
2023/03/05 04:42:19;;;;;;;62.67;28.35;;;3.10;66.60;;;;;;5053327;28;20083;-72
2023/03/05 04:44:47;;;;;;;55.38;27.92;;;3.20;66.40;;;;;;5053636;28;20035;-71
2023/03/05 04:47:13;;;;;;;57.65;28.15;;;3.10;66.60;;;;;;5053280;28;20086;-71
2023/03/05 04:49:38;;;;;;;61.70;28.50;;;3.10;66.70;;;;;;5053247;28;20033;-71
2023/03/05 04:52:04;;;;;;;58.72;28.10;;;3.10;66.50;;;;;;5053259;28;20025;-71
2023/03/05 04:54:29;;;;;;;51.75;28.23;;;3.00;66.60;;;;;;5053228;28;20029;-71
2023/03/05 04:56:55;;;;;;;55.33;27.77;;;3.00;66.70;;;;;;5053153;28;20485;-71
2023/03/05 04:59:20;;;;;;;52.17;26.55;;;3.10;66.80;;;;;;5035422;28;20025;-71
2023/03/05 05:01:46;;;;;;;59.80;28.52;;;3.10;66.90;;;;;;5053206;28;20396;-72
2023/03/05 05:04:11;;;;;;;60.70;27.95;;;3.20;66.70;;;;;;5035265;28;20033;-71
2023/03/05 05:06:37;;;;;;;58.28;27.23;;;3.20;66.60;;;;;;5035170;28;20074;-72
2023/03/05 05:09:03;;;;;;;59.42;28.55;;;3.20;66.50;;;;;;5035242;28;20025;-71
2023/03/05 05:11:28;;;;;;;51.50;26.92;;;3.10;66.60;;;;;;5035105;28;20116;-71
2023/03/05 05:13:54;;;;;;;56.72;27.77;;;3.10;66.80;;;;;;5053135;28;20017;-71
2023/03/05 05:16:19;;;;;;;54.00;28.10;;;3.10;66.90;;;;;;5052929;28;20147;-71
2023/03/05 05:18:45;;;;;;;53.10;27.35;;;3.10;67.00;;;;;;5034820;28;20065;-71
2023/03/05 05:21:13;;;;;;;53.63;26.42;;;3.00;67.20;;;;;;5052982;28;20122;-72
2023/03/05 05:23:39;;;;;;;53.03;26.48;;;3.00;67.40;;;;;;5052871;28;20025;-72
2023/03/05 05:26:06;;;;;;;54.00;26.95;;;3.00;67.70;;;;;;5052908;28;20033;-72
2023/03/05 05:28:33;;;;;;;57.88;27.25;;;3.10;67.70;;;;;;5052965;28;20488;-72
2023/03/05 05:30:59;;;;;;;60.63;27.50;;;3.10;67.70;;;;;;5056313;28;20116;-71
2023/03/05 05:33:25;;;;;;;59.63;28.42;;;3.10;67.60;;;;;;5056919;28;20049;-71
2023/03/05 05:35:51;;;;;;;53.63;26.67;;;3.10;67.50;;;;;;5056830;28;20501;-71
2023/03/05 05:38:17;;;;;;;51.10;25.73;;;3.10;67.50;;;;;;5056807;28;20532;-71
2023/03/05 05:40:43;;;;;;;49.80;26.05;;;3.20;67.60;;;;;;5056888;28;20017;-71
2023/03/05 05:43:09;;;;;;;58.30;29.27;;;3.20;67.80;;;;;;5061365;28;20029;-71
2023/03/05 05:45:37;;;;;;;55.00;27.38;;;3.20;67.80;;;;;;5056815;28;20033;-72
2023/03/05 05:48:02;;;;;;;60.25;28.65;;;3.20;67.70;;;;;;5056818;28;20535;-72
2023/03/05 05:50:28;;;;;;;53.13;24.83;;;3.20;67.60;;;;;;5056615;28;20029;-72
2023/03/05 05:52:53;;;;;;;50.35;24.73;;;3.10;67.70;;;;;;5056600;28;20025;-73
2023/03/05 05:55:19;;;;;;;55.47;27.65;;;3.10;67.80;;;;;;5038635;28;20492;-73
2023/03/05 05:57:45;;;;;;;51.33;27.88;;;3.20;67.70;;;;;;5056497;28;20437;-74
2023/03/05 06:00:13;;;;;;;53.15;26.40;;;3.20;67.70;;;;;;5056407;28;20102;-73
2023/03/05 06:02:40;;;;;;;55.78;26.58;;;3.10;67.60;;;;;;5056446;28;20029;-72
2023/03/05 06:05:07;;;;;;;50.83;26.35;;;3.20;67.60;;;;;;5056435;28;20020;-73
2023/03/05 06:07:34;;;;;;;47.83;25.25;;;3.10;67.80;;;;;;5056257;28;20048;-73
2023/03/05 06:10:00;;;;;;;47.47;23.00;;;3.00;67.90;;;;;;5056314;28;20036;-72
2023/03/05 06:12:26;;;;;;;47.25;24.40;;;3.00;68.10;;;;;;5056251;28;20473;-73
2023/03/05 06:14:52;;;;;;;55.05;26.52;;;3.00;68.40;;;;;;5056063;28;20428;-73
2023/03/05 06:17:18;;;;;;;46.30;24.08;;;3.00;68.50;;;;;;5055887;28;20474;-72
2023/03/05 06:19:44;;;;;;;49.13;25.58;;;3.00;68.70;;;;;;5055940;28;20029;-72
2023/03/05 06:22:10;;;;;;;48.30;25.48;;;3.10;69.00;;;;;;5055988;28;20523;-72
2023/03/05 06:24:37;;;;;;;49.30;24.73;;;3.10;68.80;;;;;;5055930;28;20025;-72
2023/03/05 06:27:03;;;;;;;49.38;25.75;;;3.10;68.70;;;;;;5055906;28;20108;-72
2023/03/05 06:29:28;;;;;;;49.88;24.77;;;3.10;68.80;;;;;;5055777;28;20033;-72
2023/03/05 06:31:54;;;;;;;46.05;23.92;;;3.20;68.80;;;;;;5055864;28;20025;-72
2023/03/05 06:34:19;;;;;;;49.10;25.33;;;3.20;68.70;;;;;;5037842;28;20032;-72
2023/03/05 06:36:45;;;;;;;48.85;23.38;;;3.20;68.50;;;;;;5055589;28;20029;-72
2023/03/05 06:39:11;;;;;;;47.92;23.83;;;3.20;68.50;;;;;;5055673;28;20029;-72
2023/03/05 06:41:36;;;;;;;48.22;23.65;;;3.20;68.30;;;;;;5055303;28;20036;-72
2023/03/05 06:44:02;;;;;;;43.05;22.50;;;3.20;68.20;;;;;;5055458;28;20025;-71
2023/03/05 06:46:30;;;;;;;44.25;22.73;;;3.20;68.10;;;;;;5055458;28;20021;-72
2023/03/05 06:48:58;;;;;;;46.63;23.23;;;3.20;68.20;;;;;;5037668;28;20024;-72
2023/03/05 06:51:25;;;;;;;45.15;23.52;;;3.20;68.20;;;;;;5055489;28;20120;-72
2023/03/05 06:53:51;;;;;;;41.42;22.05;;;3.20;68.10;;;;;;5055423;28;20057;-72
2023/03/05 06:56:17;;;;;;;41.88;21.40;;;3.10;68.10;;;;;;5055250;28;20037;-72
2023/03/05 06:58:45;;;;;;;43.15;21.75;;;3.10;68.40;;;;;;5055328;28;20063;-72
2023/03/05 07:01:11;;;;;;;45.80;22.85;;;3.20;68.40;;;;;;5055416;28;20025;-72
2023/03/05 07:03:37;;;;;;;46.20;23.30;;;3.20;68.40;;;;;;5055201;28;20053;-71
2023/03/05 07:06:04;;;;;;;56.45;26.00;;;3.20;68.50;;;;;;5055217;28;20017;-72
2023/03/05 07:08:30;;;;;;;48.40;23.95;;;3.30;68.60;;;;;;5055369;28;20029;-72
2023/03/05 07:10:56;;;;;;;49.90;25.38;;;3.40;68.30;;;;;;5055294;28;20082;-72
2023/03/05 07:13:22;;;;;;;49.03;25.90;;;3.40;68.20;;;;;;5054930;28;20506;-73
2023/03/05 07:15:47;;;;;;;51.65;27.65;;;3.40;68.10;;;;;;5054887;28;20040;-73
2023/03/05 07:18:13;;;;;;;49.22;25.75;;;3.50;68.20;;;;;;5054717;28;20056;-74
2023/03/05 07:20:39;;;;;;;54.95;27.75;;;3.50;68.10;;;;;;5054814;28;20057;-72
2023/03/05 07:23:04;;;;;;;60.65;32.17;;;3.50;68.10;;;;;;5054725;28;20033;-73
2023/03/05 07:25:30;;;;;;;52.03;28.10;;;3.50;67.90;;;;;;5054706;28;20021;-73
2023/03/05 07:27:56;;;;;;;52.95;27.05;;;3.60;67.80;;;;;;5054349;28;20529;-73
2023/03/05 07:30:21;;;;;;;44.15;21.90;;;3.50;67.90;;;;;;5054483;28;20063;-75
2023/03/05 07:32:47;;;;;;;44.42;20.73;;;3.60;67.90;;;;;;5054630;28;20037;-73
2023/03/05 07:35:12;;;;;;;42.47;21.55;;;3.60;67.70;;;;;;5054337;28;20051;-73
2023/03/05 07:37:38;;;;;;;41.72;19.75;;;3.60;67.50;;;;;;5054401;28;20397;-74
2023/03/05 07:40:04;;;;;;;45.38;23.17;;;3.70;67.30;;;;;;5054485;28;20036;-75
2023/03/05 07:42:30;;;;;;;41.80;22.10;;;3.70;66.90;;;;;;5036350;28;20025;-74
2023/03/05 07:44:56;;;;;;;39.67;19.67;;;3.70;66.90;;;;;;5054355;28;20057;-73
2023/03/05 07:47:22;;;;;;;37.92;19.08;;;3.70;66.70;;;;;;5054313;28;20025;-72
2023/03/05 07:49:48;;;;;;;41.45;20.02;;;3.70;66.10;;;;;;5054304;28;20021;-72
2023/03/05 07:52:14;;;;;;;36.13;18.98;;;3.70;65.90;;;;;;5053449;28;20159;-73
2023/03/05 07:54:40;;;;;;;35.15;19.42;;;3.70;65.80;;;;;;5054040;28;20059;-74
2023/03/05 07:57:07;;;;;;;55.35;18.80;;;3.70;65.80;;;;;;5053931;28;20082;-77
2023/03/05 07:59:32;;;;;;;46.47;19.75;;;4.20;86.70;;;;;;5053914;28;20408;-74
2023/03/05 08:01:58;;;;;;;42.47;20.23;;;4.50;87.00;;;;;;5053930;28;20032;-75
2023/03/05 08:04:24;;;;;;;40.15;18.90;;;4.70;78.60;;;;;;5053909;28;20017;-76
2023/03/05 08:06:49;;;;;;;37.35;18.85;;;5.20;73.20;;;;;;5053857;28;20085;-75
2023/03/05 08:09:16;;;;;;;40.63;20.05;;;5.40;69.20;;;;;;5053884;28;20032;-74
2023/03/05 08:11:42;;;;;;;41.55;21.08;;;5.60;67.20;;;;;;5053663;28;20024;-74
2023/03/05 08:14:08;;;;;;;49.22;23.90;;;5.70;66.30;;;;;;5035953;28;20365;-73
2023/03/05 08:16:34;;;;;;;44.85;23.00;;;5.60;64.50;;;;;;5053485;28;20037;-73
2023/03/05 08:19:00;;;;;;;44.53;22.25;;;5.40;63.10;;;;;;5035533;28;20425;-74
2023/03/05 08:21:34;;;;;;;45.20;22.20;;;5.30;64.30;;;;;;5053394;28;20029;-75
2023/03/05 08:24:02;;;;;;;41.20;19.85;;;5.20;65.50;;;;;;5053454;28;20083;-73
2023/03/05 08:26:30;;;;;;;40.60;19.02;;;5.30;65.60;;;;;;5053456;28;20021;-72
2023/03/05 08:28:56;;;;;;;42.15;20.05;;;5.50;66.30;;;;;;5053397;28;20103;-72
2023/03/05 08:31:23;;;;;;;37.92;20.73;;;6.10;64.90;;;;;;5052975;28;20028;-70
2023/03/05 08:33:51;;;;;;;39.95;21.73;;;6.80;61.50;;;;;;5053032;28;20465;-75
2023/03/05 08:36:17;;;;;;;34.47;18.92;;;6.90;60.40;;;;;;5053126;28;20032;-71
2023/03/05 08:38:43;;;;;;;35.00;17.33;;;6.80;59.60;;;;;;5053136;28;20021;-72
2023/03/05 08:41:09;;;;;;;37.22;16.95;;;6.40;58.70;;;;;;5053114;28;20021;-71
2023/03/05 08:43:35;;;;;;;37.72;18.20;;;6.00;59.50;;;;;;5052834;28;20029;-72
2023/03/05 08:46:02;;;;;;;32.65;16.90;;;5.70;60.30;;;;;;5052661;28;20025;-71
2023/03/05 08:48:28;;;;;;;33.00;16.70;;;5.40;61.20;;;;;;5052815;28;20115;-71
2023/03/05 08:50:55;;;;;;;37.28;18.17;;;5.20;62.10;;;;;;5052943;28;20033;-72
2023/03/05 08:53:21;;;;;;;35.83;17.35;;;5.00;62.80;;;;;;5053014;28;20027;-72
2023/03/05 08:55:56;;;;;;;35.08;17.33;;;4.80;63.30;;;;;;5052777;28;20123;-73
2023/03/05 08:58:23;;;;;;;33.97;16.65;;;4.70;63.90;;;;;;5052935;28;20037;-71
2023/03/05 09:00:49;;;;;;;36.95;17.75;;;4.60;64.20;;;;;;5052969;28;20025;-71
2023/03/05 09:03:14;;;;;;;34.28;16.70;;;4.50;64.70;;;;;;5052662;28;20052;-72
2023/03/05 09:05:40;;;;;;;30.67;16.38;;;4.50;64.80;;;;;;5052866;28;20056;-72
2023/03/05 09:08:05;;;;;;;33.80;15.70;;;4.50;64.90;;;;;;5052850;28;20017;-72
2023/03/05 09:10:31;;;;;;;30.75;15.45;;;4.50;64.80;;;;;;5052786;28;20025;-72
2023/03/05 09:12:56;;;;;;;31.98;16.95;;;4.50;64.80;;;;;;5052671;28;20029;-72
2023/03/05 09:15:22;;;;;;;32.65;17.15;;;4.50;64.60;;;;;;5052597;28;20079;-73
2023/03/05 09:17:48;;;;;;;32.28;17.10;;;4.50;64.50;;;;;;5052385;28;20048;-72
2023/03/05 09:20:14;;;;;;;36.42;18.25;;;4.50;64.40;;;;;;5052734;28;20415;-72
2023/03/05 09:22:40;;;;;;;34.33;18.23;;;4.50;64.60;;;;;;5052564;28;20017;-72
2023/03/05 09:25:08;;;;;;;35.00;19.02;;;4.40;64.80;;;;;;5052494;28;20032;-72
2023/03/05 09:27:37;;;;;;;35.92;17.50;;;4.40;65.00;;;;;;5052902;28;20017;-74
2023/03/05 09:30:04;;;;;;;36.80;18.65;;;4.40;64.70;;;;;;5052631;28;20082;-72
2023/03/05 09:32:30;;;;;;;37.47;18.40;;;4.50;64.90;;;;;;5034025;28;20029;-72
2023/03/05 09:34:56;;;;;;;37.55;20.17;;;4.50;64.50;;;;;;5052295;28;20025;-74
2023/03/05 09:37:22;;;;;;;39.45;20.23;;;4.50;64.40;;;;;;5033224;28;20028;-71
2023/03/05 09:39:48;;;;;;;31.80;18.20;;;4.50;64.40;;;;;;5051356;28;20100;-71
2023/03/05 09:42:28;;;;;;;38.60;19.83;;;4.50;64.50;;;;;;5033253;28;20128;-72
2023/03/05 09:45:27;;;;;;;35.25;19.73;;;4.50;64.50;;;;;;5048695;28;20017;-72
2023/03/05 09:48:04;;;;;;;37.38;19.67;;;4.50;64.10;;;;;;5048736;28;20473;-72
2023/03/05 09:50:35;;;;;;;32.92;18.13;;;4.50;64.10;;;;;;5051175;28;20156;-74
2023/03/05 09:53:06;;;;;;;32.67;17.55;;;4.50;64.20;;;;;;5051602;28;20022;-73
2023/03/05 09:55:43;;;;;;;31.42;16.50;;;4.60;64.20;;;;;;5051356;28;20021;-72
2023/03/05 09:58:14;;;;;;;33.83;17.10;;;4.70;64.10;;;;;;5050952;28;20626;-72
2023/03/05 10:00:44;;;;;;;32.08;16.98;;;4.70;64.00;;;;;;5051044;28;20063;-72
2023/03/05 10:03:25;;;;;;;33.58;16.45;;;4.80;63.70;;;;;;5050852;28;20021;-73
2023/03/05 10:06:01;;;;;;;33.83;17.45;;;4.90;63.50;;;;;;5033069;28;20385;-74
2023/03/05 10:08:45;;;;;;;29.85;16.27;;;4.90;63.00;;;;;;5051233;28;20028;-71
2023/03/05 10:11:36;;;;;;;36.70;18.80;;;4.80;63.00;;;;;;5050705;28;20096;-71
2023/03/05 10:14:02;;;;;;;31.30;17.60;;;4.90;63.20;;;;;;5031531;28;20033;-71
2023/03/05 10:16:51;;;;;;;32.00;16.02;;;4.90;63.00;;;;;;5037147;28;20037;-71
2023/03/05 10:20:02;;;;;;;30.08;15.18;;;5.00;62.50;;;;;;5052554;28;20064;-71
2023/03/05 10:22:49;;;;;;;33.30;17.10;;;5.10;62.10;;;;;;5036762;28;20036;-72
2023/03/05 10:25:14;;;;;;;28.60;14.70;;;5.20;61.00;;;;;;5051246;28;20029;-72
2023/03/05 10:27:51;;;;;;;25.48;14.57;;;5.20;60.80;;;;;;5053285;28;20025;-73
2023/03/05 10:30:48;;;;;;;26.48;14.43;;;5.30;60.80;;;;;;5051144;28;20024;-72
2023/03/05 10:33:23;;;;;;;27.00;14.90;;;5.40;60.50;;;;;;5053410;28;20017;-73
2023/03/05 10:36:11;;;;;;;27.85;15.30;;;5.50;60.00;;;;;;5053074;28;20036;-73
2023/03/05 10:39:03;;;;;;;27.25;14.65;;;5.60;59.90;;;;;;5051122;28;20271;-74
2023/03/05 10:42:01;;;;;;;25.10;13.15;;;5.60;59.40;;;;;;5034282;28;20021;-72
2023/03/05 10:44:46;;;;;;;25.48;14.30;;;5.70;59.40;;;;;;5052191;28;20021;-73
2023/03/05 10:47:23;;;;;;;26.30;14.95;;;5.80;59.20;;;;;;5034102;28;20489;-75
2023/03/05 10:49:51;;;;;;;23.90;14.27;;;5.90;58.80;;;;;;5034430;28;20421;-75
2023/03/05 10:52:22;;;;;;;27.38;14.65;;;6.10;58.50;;;;;;5034253;28;20080;-73
2023/03/05 10:54:48;;;;;;;26.15;14.38;;;6.10;57.70;;;;;;5034377;28;20502;-73
2023/03/05 10:57:25;;;;;;;30.13;14.50;;;6.20;57.00;;;;;;5034244;28;20072;-73
2023/03/05 10:59:54;;;;;;;27.85;14.90;;;6.20;56.90;;;;;;5034319;28;20021;-73
2023/03/05 11:02:21;;;;;;;23.08;13.40;;;6.20;56.40;;;;;;5034168;28;20028;-73
2023/03/05 11:04:48;;;;;;;29.10;15.70;;;6.30;56.30;;;;;;5034115;28;20076;-72
2023/03/05 11:07:13;;;;;;;23.27;12.88;;;6.30;55.60;;;;;;5033826;28;20486;-73
2023/03/05 11:09:40;;;;;;;28.48;15.70;;;6.30;55.60;;;;;;5016346;28;20120;-73
2023/03/05 11:12:18;;;;;;;30.77;15.25;;;6.30;55.30;;;;;;5034070;28;20374;-72
2023/03/05 11:15:03;;;;;;;27.98;16.17;;;6.40;54.90;;;;;;5034039;28;20037;-73
2023/03/05 11:17:49;;;;;;;31.00;15.93;;;6.20;55.40;;;;;;4997954;28;1036390;-73
2023/03/05 11:20:33;;;;;;;32.47;15.30;;;6.10;55.80;;;;;;5035020;28;20030;-73
2023/03/05 11:23:11;;;;;;;25.83;14.75;;;6.10;55.80;;;;;;5034929;28;20512;-73
2023/03/05 11:26:00;;;;;;;28.77;14.07;;;6.10;56.10;;;;;;5034984;28;20033;-74
2023/03/05 11:28:51;;;;;;;32.78;17.30;;;6.20;55.50;;;;;;5033708;28;20470;-73
2023/03/05 11:31:17;;;;;;;24.55;14.00;;;6.10;54.70;;;;;;5025498;28;20044;-73
2023/03/05 11:34:02;;;;;;;25.65;14.98;;;6.10;54.90;;;;;;5035110;28;20092;-73
2023/03/05 11:36:42;;;;;;;22.15;13.48;;;6.10;55.20;;;;;;5034793;28;20045;-72
2023/03/05 11:39:15;;;;;;;25.52;13.57;;;6.20;55.30;;;;;;5034489;28;20057;-72
2023/03/05 11:42:13;;;;;;;27.52;14.07;;;6.20;55.80;;;;;;5034497;28;20489;-72
2023/03/05 11:44:52;;;;;;;20.95;12.93;;;6.20;55.70;;;;;;5034617;28;20064;-72
2023/03/05 11:47:42;;;;;;;26.30;14.35;;;6.20;55.40;;;;;;5035048;28;20022;-71
2023/03/05 11:50:20;;;;;;;28.25;14.25;;;6.30;55.60;;;;;;5036496;28;20036;-72
2023/03/05 11:52:50;;;;;;;22.77;14.05;;;6.30;55.20;;;;;;5036382;28;20021;-73
2023/03/05 11:55:28;;;;;;;22.70;12.18;;;6.30;55.20;;;;;;5036209;28;20162;-72
2023/03/05 11:58:00;;;;;;;17.17;10.27;;;6.40;55.30;;;;;;5054029;28;20025;-72
2023/03/05 12:00:31;;;;;;;17.10;9.68;;;6.50;53.30;;;;;;5054197;28;20371;-72
2023/03/05 12:03:01;;;;;;;25.38;13.43;;;6.60;51.90;;;;;;5054094;28;20477;-73
2023/03/05 12:05:28;;;;;;;16.95;9.80;;;6.50;51.90;;;;;;5053972;28;20025;-73
2023/03/05 12:08:00;;;;;;;21.65;12.65;;;6.50;51.30;;;;;;5053996;28;20550;-72
2023/03/05 12:10:26;;;;;;;19.17;11.57;;;6.60;51.30;;;;;;5053935;28;20033;-73
2023/03/05 12:13:01;;;;;;;18.65;10.85;;;6.70;50.70;;;;;;5053967;28;20028;-72
2023/03/05 12:15:27;;;;;;;;;;;6.60;49.60;;;;;;5054020;28;20029;-74
2023/03/05 12:18:01;;;;;;;;;;;6.60;50.20;;;;;;5036101;28;19923;-74
2023/03/05 12:20:53;;;;;;;20.30;11.35;;;6.60;49.60;;;;;;5035792;28;20349;-73
2023/03/05 12:23:21;;;;;;;18.85;11.20;;;6.60;49.50;;;;;;5035680;28;20466;-73
2023/03/05 12:25:48;;;;;;;14.45;8.70;;;6.40;49.50;;;;;;5053588;28;20039;-73
2023/03/05 12:28:35;;;;;;;12.30;8.27;;;6.30;49.80;;;;;;5036004;28;20029;-74
2023/03/05 12:31:24;;;;;;;10.70;6.70;;;6.30;47.80;;;;;;5053396;28;20536;-74
2023/03/05 12:33:50;;;;;;;11.07;6.40;;;6.20;41.80;;;;;;5053450;28;20075;-73
2023/03/05 12:36:21;;;;;;;8.68;6.13;;;5.90;42.20;;;;;;5053407;28;20036;-74
2023/03/05 12:38:52;;;;;;;11.13;6.63;;;5.70;43.20;;;;;;5053077;28;20021;-73
2023/03/05 12:41:24;;;;;;;8.95;5.88;;;5.50;44.40;;;;;;5053395;28;20073;-74
2023/03/05 12:44:04;;;;;;;11.82;7.20;;;5.30;45.30;;;;;;5053405;28;20413;-75
2023/03/05 12:46:34;;;;;;;10.40;6.32;;;5.20;46.00;;;;;;5053446;28;20104;-73